Time;durP1;ratioP1;P1;durP2;ratioP2;P2;SDS_P1;SDS_P2;PMS_P1;PMS_P2;Temp;Humidity;BMP_temperature;BMP_pressure;BME280_temperature;BME280_humidity;BME280_pressure;Samples;Min_cycle;Max_cycle;Signal;HPM_P1;HPM_P2
2022/06/11 00:02:21;;;;;;;10.25;3.17;;;19.40;99.90;;;;;;5054228;28;20083;-67
2022/06/11 00:04:47;;;;;;;8.75;3.08;;;19.40;99.90;;;;;;5052417;28;20041;-66
2022/06/11 00:07:17;;;;;;;7.70;3.53;;;19.40;99.90;;;;;;5054128;28;20433;-67
2022/06/11 00:09:43;;;;;;;7.78;3.30;;;19.40;99.90;;;;;;5052681;28;20025;-66
2022/06/11 00:12:11;;;;;;;6.85;3.67;;;19.40;99.90;;;;;;5052598;28;20025;-66
2022/06/11 00:14:37;;;;;;;6.30;3.10;;;19.30;99.90;;;;;;5053938;28;20368;-67
2022/06/11 00:17:06;;;;;;;8.63;3.22;;;19.40;99.90;;;;;;5053999;28;20029;-66
2022/06/11 00:19:32;;;;;;;6.22;3.17;;;19.30;99.90;;;;;;5036054;28;20090;-66
2022/06/11 00:21:58;;;;;;;11.88;3.20;;;19.40;99.90;;;;;;5053555;28;20115;-66
2022/06/11 00:24:26;;;;;;;7.78;3.17;;;19.40;99.90;;;;;;5052306;28;20116;-67
2022/06/11 00:26:54;;;;;;;7.90;3.00;;;19.30;99.90;;;;;;5053601;28;20025;-67
2022/06/11 00:29:21;;;;;;;10.55;3.35;;;19.30;99.90;;;;;;5053521;28;20471;-66
2022/06/11 00:31:47;;;;;;;8.57;3.30;;;19.30;99.90;;;;;;5053724;28;20357;-66
2022/06/11 00:34:13;;;;;;;5.95;3.45;;;19.30;99.90;;;;;;5053479;28;20021;-66
2022/06/11 00:36:39;;;;;;;6.10;2.88;;;19.30;99.90;;;;;;5052435;28;20051;-66
2022/06/11 00:39:06;;;;;;;8.20;2.97;;;19.20;99.90;;;;;;5053088;28;20395;-66
2022/06/11 00:41:35;;;;;;;7.10;3.25;;;19.20;99.90;;;;;;5053367;28;20089;-67
2022/06/11 00:44:04;;;;;;;10.25;3.58;;;19.10;99.90;;;;;;5053187;28;20029;-66
2022/06/11 00:47:06;;;;;;;7.20;3.20;;;19.00;99.90;;;;;;5053546;28;20505;-66
2022/06/11 00:49:53;;;;;;;7.45;3.15;;;19.00;99.90;;;;;;5053451;28;20108;-66
2022/06/11 00:52:31;;;;;;;6.82;3.75;;;19.00;99.90;;;;;;5052150;28;20020;-67
2022/06/11 00:55:10;;;;;;;10.32;3.65;;;19.00;99.90;;;;;;5051940;28;20082;-66
2022/06/11 00:57:41;;;;;;;5.80;3.10;;;19.00;99.90;;;;;;5053225;28;20021;-66
2022/06/11 01:00:15;;;;;;;10.73;3.70;;;19.00;99.90;;;;;;5035762;28;20025;-67
2022/06/11 01:02:42;;;;;;;10.85;3.28;;;19.00;99.90;;;;;;5052172;28;20427;-66
2022/06/11 01:05:17;;;;;;;8.13;3.42;;;19.00;99.90;;;;;;5051950;28;20402;-66
2022/06/11 01:07:59;;;;;;;5.13;3.20;;;19.00;99.90;;;;;;5052144;28;20416;-66
2022/06/11 01:10:58;;;;;;;9.43;3.95;;;19.00;99.90;;;;;;5052978;28;20023;-66
2022/06/11 01:13:38;;;;;;;6.63;3.83;;;19.00;99.90;;;;;;5051582;28;20036;-66
2022/06/11 01:16:14;;;;;;;9.07;3.10;;;19.00;99.90;;;;;;5051766;28;20052;-66
2022/06/11 01:19:08;;;;;;;8.75;3.53;;;19.00;99.90;;;;;;5035131;28;20025;-66
2022/06/11 01:21:54;;;;;;;6.57;3.45;;;19.00;99.90;;;;;;5051550;28;20487;-66
2022/06/11 01:24:52;;;;;;;5.78;3.20;;;19.00;99.90;;;;;;5053052;28;20033;-66
2022/06/11 01:27:30;;;;;;;8.93;3.33;;;19.00;99.90;;;;;;5053123;28;20396;-66
2022/06/11 01:30:03;;;;;;;6.07;3.40;;;19.00;99.90;;;;;;5053105;28;20028;-66
2022/06/11 01:32:58;;;;;;;9.70;3.63;;;19.00;99.90;;;;;;5052792;28;20025;-66
2022/06/11 01:35:51;;;;;;;8.82;3.63;;;18.90;99.90;;;;;;5053038;28;20086;-66
2022/06/11 01:38:30;;;;;;;10.93;3.17;;;18.90;99.90;;;;;;5052688;28;20022;-66
2022/06/11 01:43:40;;;;;;;7.53;3.58;;;18.90;99.90;;;;;;5111260;27;20115;-66
2022/06/11 01:46:18;;;;;;;7.40;3.55;;;18.80;99.90;;;;;;5109960;28;20028;-67
2022/06/11 01:48:58;;;;;;;4.55;3.00;;;18.80;99.90;;;;;;5110164;28;20085;-66
2022/06/11 01:55:06;;;;;;;8.52;3.90;;;18.80;99.90;;;;;;5070581;28;20424;-66
2022/06/11 01:58:11;;;;;;;9.13;3.55;;;18.80;99.90;;;;;;5070290;28;20060;-66
2022/06/11 02:00:41;;;;;;;7.82;3.50;;;18.80;99.90;;;;;;5070348;28;20101;-66
2022/06/11 02:03:32;;;;;;;5.60;3.50;;;18.80;99.90;;;;;;5069524;28;20414;-66
2022/06/11 02:09:24;;;;;;;7.93;3.65;;;18.80;99.90;;;;;;5090852;28;20382;-66
2022/06/11 02:11:55;;;;;;;12.05;3.85;;;18.90;99.90;;;;;;5090749;28;20095;-66
2022/06/11 02:14:27;;;;;;;8.48;3.65;;;18.80;99.90;;;;;;5090956;28;20394;-66
2022/06/11 02:16:58;;;;;;;11.07;4.05;;;18.80;99.90;;;;;;5090902;28;20398;-66
2022/06/11 02:19:29;;;;;;;7.65;3.53;;;18.90;99.90;;;;;;5089349;28;20032;-66
2022/06/11 02:22:01;;;;;;;5.55;2.90;;;18.90;99.90;;;;;;5090775;28;20475;-66
2022/06/11 02:24:34;;;;;;;6.47;3.38;;;18.90;99.90;;;;;;5090501;28;20474;-67
2022/06/11 02:27:03;;;;;;;8.55;3.55;;;18.80;99.90;;;;;;5090621;28;20111;-66
2022/06/11 02:29:31;;;;;;;10.95;4.15;;;18.80;99.90;;;;;;5090434;28;20028;-67
2022/06/11 02:32:03;;;;;;;8.80;3.45;;;18.70;99.90;;;;;;5089382;28;20048;-66
2022/06/11 02:34:29;;;;;;;8.57;3.50;;;18.80;99.90;;;;;;5090401;28;20103;-66
2022/06/11 02:37:01;;;;;;;6.35;3.60;;;18.70;99.90;;;;;;5090456;28;20040;-67
2022/06/11 02:39:31;;;;;;;8.35;3.88;;;18.70;99.90;;;;;;5088998;28;20104;-66
2022/06/11 02:41:57;;;;;;;8.32;3.47;;;18.70;99.90;;;;;;5090151;28;20398;-66
2022/06/11 02:44:25;;;;;;;10.15;4.10;;;18.70;99.90;;;;;;5090378;28;20062;-66
2022/06/11 02:46:51;;;;;;;6.97;3.33;;;18.70;99.90;;;;;;5088757;28;20474;-66
2022/06/11 02:49:23;;;;;;;9.55;3.90;;;18.70;99.90;;;;;;5090029;28;20035;-66
2022/06/11 02:51:51;;;;;;;9.15;3.90;;;18.60;99.90;;;;;;5089984;28;20052;-67
2022/06/11 02:54:19;;;;;;;7.20;3.55;;;18.50;99.90;;;;;;5089811;28;20056;-66
2022/06/11 02:56:46;;;;;;;5.63;3.53;;;18.40;99.90;;;;;;5089821;28;20512;-67
2022/06/11 02:59:12;;;;;;;8.20;3.83;;;18.30;99.90;;;;;;5089872;28;20418;-67
2022/06/11 03:01:38;;;;;;;7.97;3.80;;;18.20;99.90;;;;;;5089833;28;20451;-67
2022/06/11 03:04:05;;;;;;;6.80;3.45;;;18.10;99.90;;;;;;5089786;28;20103;-66
2022/06/11 03:06:32;;;;;;;10.20;3.90;;;18.00;99.90;;;;;;5089954;28;20498;-67
2022/06/11 03:08:58;;;;;;;7.72;3.70;;;18.00;99.90;;;;;;5089365;28;20495;-66
2022/06/11 03:11:25;;;;;;;6.68;3.85;;;17.90;99.90;;;;;;5089859;28;20070;-67
2022/06/11 03:13:51;;;;;;;7.57;3.40;;;17.80;99.90;;;;;;5089791;28;20034;-67
2022/06/11 03:16:17;;;;;;;5.95;3.58;;;17.80;99.90;;;;;;5089482;28;20021;-66
2022/06/11 03:18:43;;;;;;;6.80;3.70;;;17.70;99.90;;;;;;5086192;28;20040;-67
2022/06/11 03:21:09;;;;;;;8.65;3.90;;;17.60;99.90;;;;;;5076141;28;20020;-66
2022/06/11 03:23:36;;;;;;;10.10;4.70;;;17.60;99.90;;;;;;5074800;28;20063;-67
2022/06/11 03:26:02;;;;;;;10.00;4.43;;;17.60;99.90;;;;;;5076101;28;20050;-66
2022/06/11 03:28:29;;;;;;;11.27;4.38;;;17.50;99.90;;;;;;5076021;28;20395;-66
2022/06/11 03:30:56;;;;;;;8.75;4.25;;;17.50;99.90;;;;;;5075888;28;20070;-66
2022/06/11 03:33:24;;;;;;;12.25;4.47;;;17.50;99.90;;;;;;5075997;28;20017;-65
2022/06/11 03:35:50;;;;;;;8.52;4.03;;;17.50;99.90;;;;;;5075679;28;20027;-66
2022/06/11 03:38:17;;;;;;;8.18;4.63;;;17.50;99.90;;;;;;5075565;28;20032;-66
2022/06/11 03:40:43;;;;;;;9.00;4.60;;;17.50;99.90;;;;;;5075555;28;20123;-66
2022/06/11 03:43:09;;;;;;;8.32;4.50;;;17.50;99.90;;;;;;5075930;28;20028;-65
2022/06/11 03:45:36;;;;;;;9.20;4.13;;;17.50;99.90;;;;;;5074562;28;20471;-66
2022/06/11 03:48:02;;;;;;;8.43;4.80;;;17.50;99.90;;;;;;5075620;28;20474;-66
2022/06/11 03:50:33;;;;;;;13.75;5.50;;;17.50;99.90;;;;;;5075613;28;20029;-66
2022/06/11 03:52:59;;;;;;;12.60;5.00;;;17.40;99.90;;;;;;5075341;28;20066;-66
2022/06/11 03:55:26;;;;;;;9.32;5.03;;;17.40;99.90;;;;;;5074093;28;20048;-66
2022/06/11 03:57:53;;;;;;;8.70;4.65;;;17.40;99.90;;;;;;5075276;28;20078;-66
2022/06/11 04:03:10;;;;;;;9.98;5.18;;;17.50;99.90;;;;;;5074094;28;20108;-66
2022/06/11 04:05:37;;;;;;;10.32;5.30;;;17.50;99.90;;;;;;5075440;28;20078;-65
2022/06/11 04:08:04;;;;;;;14.02;5.55;;;17.50;99.90;;;;;;5075022;28;20056;-66
2022/06/11 04:10:30;;;;;;;9.57;5.10;;;17.50;99.90;;;;;;5075339;28;20016;-66
2022/06/11 04:12:55;;;;;;;10.48;5.07;;;17.60;99.90;;;;;;5075336;28;20024;-66
2022/06/11 04:15:21;;;;;;;9.18;5.35;;;17.50;99.90;;;;;;5073852;28;20112;-66
2022/06/11 04:17:47;;;;;;;12.00;5.30;;;17.50;99.90;;;;;;5075344;28;20433;-66
2022/06/11 04:20:14;;;;;;;10.13;5.10;;;17.50;99.90;;;;;;5075325;28;20032;-66
2022/06/11 04:22:40;;;;;;;9.35;4.50;;;17.60;99.90;;;;;;5073905;28;20082;-66
2022/06/11 04:25:06;;;;;;;7.22;4.60;;;17.60;99.90;;;;;;5075045;28;20032;-66
2022/06/11 04:27:32;;;;;;;13.45;5.13;;;17.80;99.90;;;;;;5075616;28;20027;-67
2022/06/11 04:29:59;;;;;;;9.15;4.97;;;17.90;99.90;;;;;;5074946;28;20453;-66
2022/06/11 04:32:27;;;;;;;7.68;4.53;;;18.10;99.90;;;;;;5073334;28;20027;-66
2022/06/11 04:34:54;;;;;;;9.95;4.97;;;18.20;99.90;;;;;;5074793;28;20035;-66
2022/06/11 04:37:23;;;;;;;7.85;4.50;;;18.50;99.90;;;;;;5073326;28;20024;-67
2022/06/11 04:39:51;;;;;;;9.80;5.10;;;19.10;99.90;;;;;;5074476;28;20112;-66
2022/06/11 04:42:18;;;;;;;11.95;4.70;;;20.00;99.90;;;;;;5074850;28;20542;-67
2022/06/11 04:44:45;;;;;;;13.95;4.30;;;20.80;99.90;;;;;;5074870;28;20036;-67
2022/06/11 04:47:13;;;;;;;8.13;4.57;;;21.20;99.90;;;;;;5056718;28;20031;-67
2022/06/11 04:49:39;;;;;;;9.50;4.40;;;21.80;99.90;;;;;;5074405;28;20052;-67
2022/06/11 04:52:06;;;;;;;10.63;3.85;;;22.20;99.90;;;;;;5074445;28;20467;-67
2022/06/11 04:54:32;;;;;;;8.35;4.13;;;22.40;99.90;;;;;;5073071;28;20025;-67
2022/06/11 04:56:59;;;;;;;8.38;4.50;;;22.70;99.90;;;;;;5074433;28;20021;-67
2022/06/11 04:59:25;;;;;;;8.10;4.25;;;22.40;99.90;;;;;;5074299;28;20488;-67
2022/06/11 05:01:51;;;;;;;7.05;3.70;;;22.30;99.90;;;;;;5074256;28;20024;-67
2022/06/11 05:04:17;;;;;;;8.00;4.15;;;22.90;99.90;;;;;;5073907;28;20518;-67
2022/06/11 05:06:46;;;;;;;7.68;3.92;;;23.00;99.90;;;;;;5074090;28;20027;-67
2022/06/11 05:09:16;;;;;;;7.97;5.00;;;23.70;99.90;;;;;;5073828;28;20153;-67
2022/06/11 05:11:43;;;;;;;8.75;4.90;;;22.90;99.90;;;;;;5072829;28;20021;-67
2022/06/11 05:14:08;;;;;;;8.52;5.00;;;22.60;99.90;;;;;;5072568;28;20025;-67
2022/06/11 05:16:36;;;;;;;8.50;4.85;;;22.70;99.90;;;;;;5073756;28;20021;-67
2022/06/11 05:19:07;;;;;;;8.70;5.38;;;22.60;99.90;;;;;;5073995;28;20496;-67
2022/06/11 05:21:33;;;;;;;9.68;4.70;;;22.20;99.90;;;;;;5056203;28;20411;-67
2022/06/11 05:23:58;;;;;;;10.73;5.35;;;22.90;99.90;;;;;;5072405;28;20058;-67
2022/06/11 05:26:30;;;;;;;8.45;4.30;;;23.30;99.90;;;;;;5072077;28;20473;-67
2022/06/11 05:28:55;;;;;;;10.45;4.65;;;23.30;99.90;;;;;;5072398;28;20032;-68
2022/06/11 05:31:21;;;;;;;8.50;4.40;;;23.20;99.90;;;;;;5073509;28;20042;-67
2022/06/11 05:33:47;;;;;;;10.45;4.57;;;23.50;99.90;;;;;;5055632;28;20065;-67
2022/06/11 05:36:14;;;;;;;8.20;4.32;;;24.00;99.90;;;;;;5073636;28;20400;-69
2022/06/11 05:38:40;;;;;;;8.98;4.18;;;24.50;99.90;;;;;;5073292;28;20027;-67
2022/06/11 05:41:06;;;;;;;7.47;3.90;;;24.80;99.90;;;;;;5072132;28;20391;-67
2022/06/11 05:43:32;;;;;;;9.30;4.20;;;24.90;99.90;;;;;;5073123;28;20029;-68
2022/06/11 05:46:03;;;;;;;7.43;4.15;;;25.10;99.90;;;;;;5073275;28;20478;-67
2022/06/11 05:48:34;;;;;;;8.52;3.72;;;24.70;99.90;;;;;;5073493;28;20032;-67
2022/06/11 05:51:00;;;;;;;6.45;3.35;;;25.10;99.90;;;;;;5073231;28;20024;-67
2022/06/11 05:53:30;;;;;;;7.40;3.17;;;25.50;99.90;;;;;;5073169;28;20407;-67
2022/06/11 05:55:58;;;;;;;9.00;3.42;;;25.70;99.90;;;;;;5071973;28;20363;-68
2022/06/11 05:58:44;;;;;;;8.40;3.53;;;26.10;99.90;;;;;;5073122;28;20029;-67
2022/06/11 06:01:14;;;;;;;6.50;3.25;;;25.70;99.90;;;;;;5073320;28;20032;-67
2022/06/11 06:03:39;;;;;;;10.90;3.38;;;25.10;99.90;;;;;;5073117;28;20078;-67
2022/06/11 06:06:05;;;;;;;7.57;2.45;;;24.90;99.90;;;;;;5071780;28;20028;-67
2022/06/11 06:08:31;;;;;;;5.68;2.72;;;24.70;99.90;;;;;;5071661;28;20461;-67
2022/06/11 06:10:56;;;;;;;7.07;2.47;;;24.90;99.90;;;;;;5072996;28;20390;-67
2022/06/11 06:13:55;;;;;;;5.50;2.40;;;25.40;99.90;;;;;;5073279;28;20115;-67
2022/06/11 06:16:08;;;;;;;3.92;2.05;;;25.60;99.90;;;;;;5072810;28;20556;-67
2022/06/11 06:18:34;;;;;;;6.68;2.33;;;25.30;99.90;;;;;;5072951;28;20028;-67
2022/06/11 06:20:59;;;;;;;4.28;2.13;;;25.60;99.90;;;;;;5072948;28;20025;-67
2022/06/11 06:23:25;;;;;;;4.55;1.83;;;24.90;99.90;;;;;;5073157;28;20032;-67
2022/06/11 06:25:51;;;;;;;5.15;2.03;;;25.10;99.90;;;;;;5073121;28;20593;-67
2022/06/11 06:28:16;;;;;;;4.85;1.80;;;25.20;99.90;;;;;;5073045;28;20110;-67
2022/06/11 06:30:42;;;;;;;4.28;1.80;;;25.80;99.90;;;;;;5073067;28;20383;-67
2022/06/11 06:33:08;;;;;;;3.78;1.80;;;25.90;99.90;;;;;;5072905;28;20391;-67
2022/06/11 06:35:34;;;;;;;7.28;1.80;;;26.40;99.90;;;;;;5071693;28;20082;-68
2022/06/11 06:37:59;;;;;;;2.95;1.63;;;27.10;99.90;;;;;;5071834;28;20035;-68
2022/06/11 06:40:25;;;;;;;5.13;1.55;;;28.30;99.40;;;;;;5072737;28;20078;-68
2022/06/11 06:42:51;;;;;;;4.97;1.85;;;28.20;97.40;;;;;;5072734;28;20035;-67
2022/06/11 06:45:17;;;;;;;4.22;1.83;;;26.30;99.90;;;;;;5072713;28;20024;-67
2022/06/11 06:47:43;;;;;;;5.30;1.92;;;24.50;99.90;;;;;;5072829;28;20032;-67
2022/06/11 06:50:08;;;;;;;4.15;2.05;;;24.20;99.90;;;;;;5072635;28;20095;-67
2022/06/11 06:52:35;;;;;;;3.03;1.92;;;23.20;99.90;;;;;;5071456;28;20074;-67
2022/06/11 06:55:01;;;;;;;4.13;2.08;;;22.70;99.90;;;;;;5074977;28;20049;-67
2022/06/11 06:57:26;;;;;;;3.90;2.38;;;22.40;99.90;;;;;;5058252;28;20032;-67
2022/06/11 06:59:52;;;;;;;3.20;1.90;;;22.00;99.90;;;;;;5075146;28;20032;-67
2022/06/11 07:02:18;;;;;;;4.18;2.53;;;21.90;99.90;;;;;;5076542;28;20036;-67
2022/06/11 07:04:44;;;;;;;2.53;2.30;;;22.00;99.90;;;;;;5076471;28;20036;-67
2022/06/11 07:07:14;;;;;;;7.97;2.75;;;21.80;99.90;;;;;;5075990;28;20408;-67
2022/06/11 07:09:40;;;;;;;4.82;2.03;;;21.80;99.90;;;;;;5076226;28;20527;-67
2022/06/11 07:12:06;;;;;;;6.28;2.38;;;21.50;99.90;;;;;;5076254;28;20020;-67
2022/06/11 07:14:31;;;;;;;7.57;2.75;;;21.40;99.90;;;;;;5076013;28;20106;-67
2022/06/11 07:17:00;;;;;;;6.75;2.42;;;21.50;99.90;;;;;;5076271;28;20025;-67
2022/06/11 07:19:32;;;;;;;7.50;3.00;;;21.50;99.90;;;;;;5075914;28;20024;-67
2022/06/11 07:22:03;;;;;;;7.97;2.78;;;21.60;99.90;;;;;;5075034;28;20114;-67
2022/06/11 07:24:31;;;;;;;6.90;2.40;;;21.50;99.90;;;;;;5075911;28;20028;-67
2022/06/11 07:27:01;;;;;;;4.80;2.92;;;21.70;99.90;;;;;;5074829;28;20382;-67
2022/06/11 07:29:30;;;;;;;6.80;2.47;;;21.90;99.90;;;;;;5075750;28;20021;-67
2022/06/11 07:32:01;;;;;;;6.75;2.38;;;21.80;99.90;;;;;;5075702;28;20021;-67
2022/06/11 07:34:28;;;;;;;4.63;2.75;;;22.00;99.90;;;;;;5074733;28;20025;-67
2022/06/11 07:36:56;;;;;;;6.43;2.78;;;22.10;99.90;;;;;;5075614;28;20024;-67
2022/06/11 07:39:21;;;;;;;6.00;2.60;;;22.10;99.90;;;;;;5075597;28;20032;-67
2022/06/11 07:41:47;;;;;;;4.53;2.80;;;22.30;99.90;;;;;;5075567;28;20021;-67
2022/06/11 07:44:12;;;;;;;5.18;2.70;;;22.20;99.90;;;;;;5075562;28;20020;-66
2022/06/11 07:46:38;;;;;;;8.27;3.00;;;22.30;99.90;;;;;;5075718;28;20024;-66
2022/06/11 07:49:04;;;;;;;6.97;2.92;;;22.80;99.90;;;;;;5075300;28;20111;-67
2022/06/11 07:51:29;;;;;;;4.43;2.58;;;23.50;99.90;;;;;;5075369;28;20490;-66
2022/06/11 07:53:55;;;;;;;5.20;2.55;;;23.60;99.90;;;;;;5075370;28;20387;-67
2022/06/11 07:56:20;;;;;;;5.78;2.28;;;23.10;99.90;;;;;;5075568;28;20031;-67
2022/06/11 07:58:49;;;;;;;4.90;2.42;;;23.10;99.90;;;;;;5075537;28;20028;-67
2022/06/11 08:01:15;;;;;;;5.80;2.50;;;24.00;99.90;;;;;;5074047;28;20095;-67
2022/06/11 08:03:41;;;;;;;8.00;3.28;;;24.40;99.90;;;;;;5075390;28;20398;-67
2022/06/11 08:06:08;;;;;;;3.58;2.53;;;24.30;99.90;;;;;;5073776;28;20024;-67
2022/06/11 08:08:34;;;;;;;5.57;3.00;;;24.10;99.90;;;;;;5074843;28;20499;-67
2022/06/11 08:11:02;;;;;;;5.68;2.80;;;24.10;99.90;;;;;;5057200;28;20028;-67
2022/06/11 08:13:28;;;;;;;5.32;2.40;;;24.00;99.90;;;;;;5075178;28;20028;-66
2022/06/11 08:15:54;;;;;;;7.07;2.72;;;23.60;99.90;;;;;;5073785;28;20078;-66
2022/06/11 08:18:22;;;;;;;4.72;2.40;;;22.90;99.90;;;;;;5075150;28;20025;-67
2022/06/11 08:20:50;;;;;;;4.10;2.70;;;22.80;99.90;;;;;;5073592;28;20119;-66
2022/06/11 08:23:16;;;;;;;5.75;2.58;;;22.80;99.90;;;;;;5075062;28;20025;-67
2022/06/11 08:25:41;;;;;;;10.27;3.30;;;22.40;99.90;;;;;;5073514;28;20031;-67
2022/06/11 08:28:10;;;;;;;6.20;2.85;;;22.10;99.90;;;;;;5074639;28;20032;-67
2022/06/11 08:30:35;;;;;;;6.38;3.20;;;22.60;99.90;;;;;;5074685;28;20070;-66
2022/06/11 08:33:01;;;;;;;4.65;2.70;;;22.50;99.90;;;;;;5074826;28;20100;-66
2022/06/11 08:35:30;;;;;;;6.25;3.25;;;22.90;99.90;;;;;;5074497;28;20024;-65
2022/06/11 08:37:55;;;;;;;7.28;3.53;;;22.60;99.90;;;;;;5074746;28;20028;-67
2022/06/11 08:40:44;;;;;;;5.68;3.42;;;22.10;99.90;;;;;;5074354;28;20051;-66
2022/06/11 08:43:34;;;;;;;8.60;3.40;;;22.50;99.90;;;;;;5074299;28;20111;-66
2022/06/11 08:46:03;;;;;;;6.97;3.33;;;22.80;99.90;;;;;;5074522;28;20025;-66
2022/06/11 08:48:49;;;;;;;4.68;3.28;;;23.20;99.90;;;;;;5074414;28;20028;-68
2022/06/11 08:51:32;;;;;;;7.13;3.47;;;23.90;99.90;;;;;;5074455;28;20046;-67
2022/06/11 08:54:02;;;;;;;6.73;3.73;;;23.40;99.90;;;;;;5074123;28;20024;-67
2022/06/11 08:56:34;;;;;;;5.13;3.10;;;24.10;99.90;;;;;;5074078;28;20390;-67
2022/06/11 08:59:39;;;;;;;6.45;3.20;;;24.30;99.90;;;;;;5074068;28;20475;-67
2022/06/11 09:02:35;;;;;;;7.15;4.47;;;24.10;99.90;;;;;;5074035;28;20406;-67
2022/06/11 09:08:08;;;;;;;4.68;3.50;;;23.60;99.90;;;;;;5090716;28;20927;-67
2022/06/11 09:11:08;;;;;;;5.80;4.40;;;23.80;99.90;;;;;;5090639;28;20082;-67
2022/06/11 09:14:14;;;;;;;4.43;3.65;;;24.10;99.90;;;;;;5089632;28;20397;-67
2022/06/11 09:17:19;;;;;;;5.80;4.22;;;25.40;99.90;;;;;;5090452;28;20115;-67
2022/06/11 09:20:11;;;;;;;8.02;3.85;;;26.10;99.90;;;;;;5090346;28;20532;-67
2022/06/11 09:25:57;;;;;;;7.25;3.28;;;25.30;99.90;;;;;;5070621;28;20796;-67
2022/06/11 09:28:44;;;;;;;6.22;2.70;;;24.80;99.90;;;;;;5069322;28;20390;-67
2022/06/11 09:31:19;;;;;;;7.55;3.47;;;24.60;99.90;;;;;;5070463;28;20082;-67
2022/06/11 09:33:55;;;;;;;5.82;3.38;;;24.00;99.90;;;;;;5070373;28;20035;-67
2022/06/11 09:36:32;;;;;;;8.43;3.63;;;24.00;99.90;;;;;;5070344;28;20025;-67
2022/06/11 09:39:30;;;;;;;6.82;4.05;;;24.90;99.90;;;;;;5070552;28;20475;-67
2022/06/11 09:42:10;;;;;;;6.63;4.70;;;25.90;99.90;;;;;;5070093;28;20039;-67
2022/06/11 09:45:01;;;;;;;5.85;4.05;;;25.90;99.90;;;;;;5068910;28;20028;-67
2022/06/11 09:47:48;;;;;;;7.95;4.47;;;26.00;99.90;;;;;;5069942;28;20031;-67
2022/06/11 09:50:29;;;;;;;5.30;4.40;;;25.60;99.90;;;;;;5070146;28;20021;-67
2022/06/11 09:53:32;;;;;;;6.28;4.20;;;24.70;99.90;;;;;;5070195;28;20056;-67
2022/06/11 09:56:08;;;;;;;6.25;4.80;;;25.20;99.90;;;;;;5069897;28;20025;-67
2022/06/11 09:58:47;;;;;;;5.70;4.47;;;24.60;99.90;;;;;;5069804;28;20021;-67
2022/06/11 10:01:20;;;;;;;6.63;4.00;;;24.80;99.90;;;;;;5070067;28;20036;-67
2022/06/11 10:03:58;;;;;;;5.15;3.40;;;25.40;99.90;;;;;;5069623;28;20070;-67
2022/06/11 10:06:29;;;;;;;6.07;3.70;;;24.80;99.90;;;;;;5052421;28;20047;-67
2022/06/11 10:09:02;;;;;;;6.13;3.80;;;24.60;99.90;;;;;;5069605;28;20055;-67
2022/06/11 10:11:51;;;;;;;5.55;3.92;;;24.70;99.90;;;;;;5069862;28;20028;-67
2022/06/11 10:14:29;;;;;;;5.82;4.43;;;24.70;99.90;;;;;;5069473;28;20162;-67
2022/06/11 10:17:17;;;;;;;7.28;4.70;;;24.70;99.90;;;;;;5068383;28;20025;-67
2022/06/11 10:20:10;;;;;;;7.43;4.55;;;24.20;99.90;;;;;;5068212;28;20033;-67
2022/06/11 10:23:16;;;;;;;10.25;6.07;;;24.40;99.90;;;;;;5069447;28;20020;-67
2022/06/11 10:26:06;;;;;;;8.07;7.10;;;23.90;99.90;;;;;;5067861;28;20479;-67
2022/06/11 10:28:40;;;;;;;10.02;7.63;;;23.70;99.90;;;;;;5069434;28;20483;-67
2022/06/11 10:31:12;;;;;;;7.60;6.10;;;23.60;99.90;;;;;;5069422;28;20536;-67
2022/06/11 10:34:00;;;;;;;7.90;6.70;;;23.70;99.90;;;;;;5068087;28;20024;-67
2022/06/11 10:36:50;;;;;;;5.50;4.82;;;24.20;99.90;;;;;;5058035;28;20027;-67
2022/06/11 10:39:23;;;;;;;8.15;5.20;;;24.70;99.90;;;;;;5055808;28;20494;-67
2022/06/11 10:44:47;;;;;;;9.70;5.88;;;24.30;99.90;;;;;;5111100;27;20181;-67
2022/06/11 10:47:37;;;;;;;6.55;5.70;;;24.00;99.90;;;;;;5111218;28;20036;-67
2022/06/11 10:52:55;;;;;;;7.25;6.00;;;23.90;99.90;;;;;;5070479;28;20379;-67
2022/06/11 10:55:44;;;;;;;8.40;6.68;;;23.70;99.90;;;;;;5070627;28;20111;-67
2022/06/11 10:58:33;;;;;;;11.05;6.50;;;23.90;99.90;;;;;;5070350;28;20386;-67
2022/06/11 11:01:06;;;;;;;6.90;6.10;;;23.90;99.90;;;;;;5069160;28;20033;-67
2022/06/11 11:03:57;;;;;;;6.47;5.47;;;24.40;99.90;;;;;;5070542;28;20120;-68
2022/06/11 11:06:32;;;;;;;10.57;5.30;;;25.20;99.90;;;;;;5070130;28;20029;-67
2022/06/11 11:09:02;;;;;;;8.88;4.53;;;25.60;99.90;;;;;;5070395;28;20425;-67
2022/06/11 11:11:32;;;;;;;6.03;3.97;;;25.90;99.90;;;;;;5070213;28;20028;-67
2022/06/11 11:14:19;;;;;;;7.10;4.20;;;25.80;99.90;;;;;;5070267;28;20033;-67
2022/06/11 11:16:48;;;;;;;5.68;4.20;;;25.40;99.90;;;;;;5069018;28;20017;-67
2022/06/11 11:19:21;;;;;;;4.53;3.70;;;25.50;99.90;;;;;;5070540;28;20494;-67
2022/06/11 11:21:53;;;;;;;6.88;4.78;;;25.90;99.90;;;;;;5069975;28;20016;-66
2022/06/11 11:24:25;;;;;;;6.70;4.60;;;25.20;99.90;;;;;;5069955;28;20032;-67
2022/06/11 11:27:02;;;;;;;6.53;4.70;;;25.00;99.90;;;;;;5069842;28;20390;-67
2022/06/11 11:29:38;;;;;;;7.53;5.43;;;25.30;99.90;;;;;;5069757;28;20029;-66
2022/06/11 11:32:29;;;;;;;7.63;5.20;;;25.80;99.90;;;;;;5069786;28;20028;-67
2022/06/11 11:34:55;;;;;;;10.40;5.32;;;25.20;99.90;;;;;;5068712;28;20429;-67
2022/06/11 11:37:25;;;;;;;7.55;5.07;;;25.00;99.90;;;;;;5069817;28;20102;-67
2022/06/11 11:39:56;;;;;;;7.88;4.88;;;24.90;99.90;;;;;;5069786;28;20471;-67
2022/06/11 11:42:23;;;;;;;5.35;4.60;;;24.90;99.90;;;;;;5069440;28;20479;-67
2022/06/11 11:44:51;;;;;;;7.75;5.45;;;24.70;99.90;;;;;;5068221;28;20027;-67
2022/06/11 11:47:34;;;;;;;7.78;5.20;;;24.60;99.90;;;;;;5069466;28;20108;-67
2022/06/11 11:50:21;;;;;;;8.02;4.80;;;24.90;99.90;;;;;;5069466;28;20028;-67
2022/06/11 11:52:53;;;;;;;6.32;5.57;;;25.30;99.90;;;;;;5069128;28;20037;-67
2022/06/11 11:55:25;;;;;;;9.70;6.22;;;25.10;99.90;;;;;;5069349;28;20035;-67
2022/06/11 11:58:15;;;;;;;8.13;6.07;;;24.20;99.90;;;;;;5069392;28;20025;-67
2022/06/11 12:01:08;;;;;;;9.68;6.07;;;24.30;99.90;;;;;;5069153;28;20025;-67
2022/06/11 12:03:39;;;;;;;8.60;5.32;;;24.60;99.90;;;;;;5058866;28;20032;-67
2022/06/11 12:06:07;;;;;;;7.82;5.47;;;24.40;99.90;;;;;;5056100;28;20491;-67
2022/06/11 12:08:52;;;;;;;6.40;5.45;;;24.80;99.90;;;;;;5054867;28;20022;-69
2022/06/11 12:11:36;;;;;;;10.82;5.55;;;25.00;99.90;;;;;;5055883;28;20094;-66
2022/06/11 12:14:13;;;;;;;8.65;5.80;;;24.80;99.90;;;;;;5055924;28;20433;-67
2022/06/11 12:16:48;;;;;;;6.50;5.90;;;24.80;99.90;;;;;;5055571;28;20476;-67
2022/06/11 12:19:25;;;;;;;9.57;5.38;;;25.10;99.90;;;;;;5055550;28;20013;-66
2022/06/11 12:22:12;;;;;;;8.20;6.28;;;25.40;99.90;;;;;;5054248;28;20036;-66
2022/06/11 12:24:47;;;;;;;7.70;5.82;;;25.30;99.90;;;;;;5055354;28;20056;-66
2022/06/11 12:27:25;;;;;;;8.20;5.97;;;24.80;99.90;;;;;;5055660;28;20025;-66
2022/06/11 12:29:56;;;;;;;8.60;5.90;;;24.80;99.90;;;;;;5054250;28;20017;-66
2022/06/11 12:32:25;;;;;;;7.88;5.95;;;24.60;99.90;;;;;;5055300;28;20029;-66
2022/06/11 12:34:52;;;;;;;6.53;5.75;;;24.40;99.90;;;;;;5055422;28;20386;-67
2022/06/11 12:37:36;;;;;;;7.85;5.90;;;24.70;99.90;;;;;;5054250;28;20021;-67
2022/06/11 12:40:32;;;;;;;7.63;5.53;;;24.40;99.90;;;;;;5055389;28;20025;-66
2022/06/11 12:43:15;;;;;;;7.70;5.65;;;24.60;99.90;;;;;;5054865;28;20542;-67
2022/06/11 12:45:55;;;;;;;8.63;6.22;;;24.70;99.90;;;;;;5053759;28;20021;-67
2022/06/11 12:48:38;;;;;;;8.55;5.60;;;24.60;99.90;;;;;;5054677;28;20083;-68
2022/06/11 12:51:10;;;;;;;;;;;24.70;99.90;;;;;;5053715;28;20045;-67
2022/06/11 12:53:59;;;;;;;4.82;4.25;;;25.10;99.90;;;;;;5053130;28;19905;-67
2022/06/11 12:57:01;;;;;;;6.68;3.92;;;25.30;99.90;;;;;;5053511;28;20021;-67
2022/06/11 12:59:51;;;;;;;6.18;4.43;;;25.70;99.90;;;;;;5054699;28;20017;-66
2022/06/11 13:02:56;;;;;;;7.05;4.40;;;26.10;99.90;;;;;;5054873;28;20021;-66
2022/06/11 13:05:39;;;;;;;6.20;4.43;;;25.70;99.90;;;;;;5053740;28;20391;-66
2022/06/11 13:08:26;;;;;;;10.10;4.75;;;26.30;99.90;;;;;;5054937;28;20028;-66
2022/06/11 13:14:18;;;;;;;7.15;4.47;;;26.40;99.90;;;;;;5090605;28;20297;-68
2022/06/11 13:17:27;;;;;;;7.70;4.43;;;25.70;99.90;;;;;;5090547;28;20051;-68
2022/06/11 13:20:17;;;;;;;7.15;4.43;;;25.80;99.90;;;;;;5090345;28;20017;-67
2022/06/11 13:22:57;;;;;;;4.78;4.28;;;25.70;99.90;;;;;;5090353;28;20024;-66
2022/06/11 13:25:39;;;;;;;6.97;4.20;;;25.60;99.90;;;;;;5089205;28;20478;-68
2022/06/11 13:28:34;;;;;;;7.15;4.20;;;26.00;99.90;;;;;;5090526;28;20028;-67
2022/06/11 13:31:25;;;;;;;4.40;4.00;;;25.90;99.90;;;;;;5090226;28;20028;-67
2022/06/11 13:34:03;;;;;;;6.85;4.55;;;25.50;99.90;;;;;;5090643;28;20593;-67
2022/06/11 13:37:07;;;;;;;6.25;4.30;;;25.60;99.90;;;;;;5090436;28;20038;-68
2022/06/11 13:39:44;;;;;;;;;;;26.00;99.90;;;;;;5090625;28;20497;-68
2022/06/11 13:42:38;;;;;;;5.95;4.30;;;26.30;99.90;;;;;;5090434;28;19904;-68
2022/06/11 13:45:43;;;;;;;6.88;4.43;;;25.60;99.90;;;;;;5088735;28;20024;-67
2022/06/11 13:48:49;;;;;;;6.65;4.43;;;25.40;99.90;;;;;;5089933;28;20062;-68